sensor_id;sensor_type;location;lat;lon;timestamp;P1;durP1;ratioP1;P2;durP2;ratioP2
18947;SDS011;9607;51.600;7.558;2024-03-07T00:00:04;69.80;;;30.50;;
18947;SDS011;9607;51.600;7.558;2024-03-07T00:02:39;73.68;;;33.22;;
18947;SDS011;9607;51.600;7.558;2024-03-07T00:05:06;69.13;;;31.02;;
18947;SDS011;9607;51.600;7.558;2024-03-07T00:07:36;67.82;;;29.40;;
18947;SDS011;9607;51.600;7.558;2024-03-07T00:10:03;60.75;;;28.40;;
18947;SDS011;9607;51.600;7.558;2024-03-07T00:12:32;68.13;;;28.38;;
18947;SDS011;9607;51.600;7.558;2024-03-07T00:15:00;59.33;;;27.48;;
18947;SDS011;9607;51.600;7.558;2024-03-07T00:17:28;62.53;;;28.25;;
18947;SDS011;9607;51.600;7.558;2024-03-07T00:19:55;58.65;;;27.33;;
18947;SDS011;9607;51.600;7.558;2024-03-07T00:22:22;54.95;;;26.02;;
18947;SDS011;9607;51.600;7.558;2024-03-07T00:24:53;63.47;;;28.70;;
18947;SDS011;9607;51.600;7.558;2024-03-07T00:27:19;56.28;;;26.75;;
18947;SDS011;9607;51.600;7.558;2024-03-07T00:29:46;57.03;;;26.35;;
18947;SDS011;9607;51.600;7.558;2024-03-07T00:32:18;54.70;;;25.70;;
18947;SDS011;9607;51.600;7.558;2024-03-07T00:34:45;47.25;;;23.48;;
18947;SDS011;9607;51.600;7.558;2024-03-07T00:37:11;53.22;;;25.23;;
18947;SDS011;9607;51.600;7.558;2024-03-07T00:39:39;52.45;;;26.10;;
18947;SDS011;9607;51.600;7.558;2024-03-07T00:42:07;55.55;;;26.65;;
18947;SDS011;9607;51.600;7.558;2024-03-07T00:44:34;57.33;;;27.92;;
18947;SDS011;9607;51.600;7.558;2024-03-07T00:47:01;64.68;;;29.92;;
18947;SDS011;9607;51.600;7.558;2024-03-07T00:49:29;59.70;;;28.70;;
18947;SDS011;9607;51.600;7.558;2024-03-07T00:51:57;69.75;;;31.77;;
18947;SDS011;9607;51.600;7.558;2024-03-07T00:54:24;70.45;;;31.35;;
18947;SDS011;9607;51.600;7.558;2024-03-07T00:56:51;62.67;;;29.08;;
18947;SDS011;9607;51.600;7.558;2024-03-07T00:59:19;58.28;;;28.52;;
18947;SDS011;9607;51.600;7.558;2024-03-07T01:01:46;62.53;;;29.33;;
18947;SDS011;9607;51.600;7.558;2024-03-07T01:04:14;83.28;;;34.40;;
18947;SDS011;9607;51.600;7.558;2024-03-07T01:06:41;96.72;;;39.25;;
18947;SDS011;9607;51.600;7.558;2024-03-07T01:09:07;79.00;;;35.95;;
18947;SDS011;9607;51.600;7.558;2024-03-07T01:11:39;82.05;;;36.67;;
18947;SDS011;9607;51.600;7.558;2024-03-07T01:14:06;83.85;;;35.17;;
18947;SDS011;9607;51.600;7.558;2024-03-07T01:16:34;68.15;;;31.80;;
18947;SDS011;9607;51.600;7.558;2024-03-07T01:19:01;63.75;;;29.30;;
18947;SDS011;9607;51.600;7.558;2024-03-07T01:21:30;57.33;;;27.13;;
18947;SDS011;9607;51.600;7.558;2024-03-07T01:23:57;61.40;;;27.85;;
18947;SDS011;9607;51.600;7.558;2024-03-07T01:26:25;52.45;;;25.77;;
18947;SDS011;9607;51.600;7.558;2024-03-07T01:28:52;75.53;;;33.00;;
18947;SDS011;9607;51.600;7.558;2024-03-07T01:31:20;79.85;;;35.13;;
18947;SDS011;9607;51.600;7.558;2024-03-07T01:33:48;77.50;;;35.53;;
18947;SDS011;9607;51.600;7.558;2024-03-07T01:36:16;70.38;;;32.22;;
18947;SDS011;9607;51.600;7.558;2024-03-07T01:38:43;66.43;;;30.33;;
18947;SDS011;9607;51.600;7.558;2024-03-07T01:41:10;55.95;;;28.05;;
18947;SDS011;9607;51.600;7.558;2024-03-07T01:43:37;58.10;;;29.17;;
18947;SDS011;9607;51.600;7.558;2024-03-07T01:46:03;63.90;;;28.85;;
18947;SDS011;9607;51.600;7.558;2024-03-07T01:48:31;63.10;;;27.92;;
18947;SDS011;9607;51.600;7.558;2024-03-07T01:50:59;71.72;;;31.48;;
18947;SDS011;9607;51.600;7.558;2024-03-07T01:53:29;70.43;;;29.52;;
18947;SDS011;9607;51.600;7.558;2024-03-07T01:55:57;80.75;;;35.38;;
18947;SDS011;9607;51.600;7.558;2024-03-07T01:58:25;92.80;;;39.03;;
18947;SDS011;9607;51.600;7.558;2024-03-07T02:00:52;87.30;;;36.58;;
18947;SDS011;9607;51.600;7.558;2024-03-07T02:03:19;86.60;;;34.80;;
18947;SDS011;9607;51.600;7.558;2024-03-07T02:05:47;71.65;;;32.40;;
18947;SDS011;9607;51.600;7.558;2024-03-07T02:08:15;65.65;;;31.48;;
18947;SDS011;9607;51.600;7.558;2024-03-07T02:10:42;65.82;;;28.80;;
18947;SDS011;9607;51.600;7.558;2024-03-07T02:13:08;60.03;;;26.42;;
18947;SDS011;9607;51.600;7.558;2024-03-07T02:15:35;55.13;;;26.80;;
18947;SDS011;9607;51.600;7.558;2024-03-07T02:18:02;50.10;;;23.52;;
18947;SDS011;9607;51.600;7.558;2024-03-07T02:20:29;52.80;;;25.70;;
18947;SDS011;9607;51.600;7.558;2024-03-07T02:22:57;69.43;;;31.92;;
18947;SDS011;9607;51.600;7.558;2024-03-07T02:25:24;87.28;;;38.15;;
18947;SDS011;9607;51.600;7.558;2024-03-07T02:27:50;81.22;;;36.55;;
18947;SDS011;9607;51.600;7.558;2024-03-07T02:30:17;81.07;;;35.88;;
18947;SDS011;9607;51.600;7.558;2024-03-07T02:32:45;66.65;;;31.75;;
18947;SDS011;9607;51.600;7.558;2024-03-07T02:35:16;67.07;;;30.45;;
18947;SDS011;9607;51.600;7.558;2024-03-07T02:37:44;68.22;;;29.80;;
18947;SDS011;9607;51.600;7.558;2024-03-07T02:40:13;61.33;;;28.65;;
18947;SDS011;9607;51.600;7.558;2024-03-07T02:42:41;62.92;;;30.65;;
18947;SDS011;9607;51.600;7.558;2024-03-07T02:45:08;68.03;;;28.52;;
18947;SDS011;9607;51.600;7.558;2024-03-07T02:47:35;66.75;;;29.90;;
18947;SDS011;9607;51.600;7.558;2024-03-07T02:50:04;63.38;;;28.90;;
18947;SDS011;9607;51.600;7.558;2024-03-07T02:52:32;71.47;;;30.33;;
18947;SDS011;9607;51.600;7.558;2024-03-07T02:54:59;59.40;;;26.35;;
18947;SDS011;9607;51.600;7.558;2024-03-07T02:57:29;65.38;;;27.58;;
18947;SDS011;9607;51.600;7.558;2024-03-07T02:59:57;62.63;;;26.92;;
18947;SDS011;9607;51.600;7.558;2024-03-07T03:02:23;55.70;;;25.70;;
18947;SDS011;9607;51.600;7.558;2024-03-07T03:04:50;60.88;;;28.17;;
18947;SDS011;9607;51.600;7.558;2024-03-07T03:07:17;78.65;;;32.60;;
18947;SDS011;9607;51.600;7.558;2024-03-07T03:09:44;69.85;;;29.75;;
18947;SDS011;9607;51.600;7.558;2024-03-07T03:12:11;61.78;;;27.98;;
18947;SDS011;9607;51.600;7.558;2024-03-07T03:14:39;58.17;;;27.35;;
18947;SDS011;9607;51.600;7.558;2024-03-07T03:17:07;57.25;;;25.48;;
18947;SDS011;9607;51.600;7.558;2024-03-07T03:19:36;52.97;;;24.63;;
18947;SDS011;9607;51.600;7.558;2024-03-07T03:22:02;60.90;;;26.35;;
18947;SDS011;9607;51.600;7.558;2024-03-07T03:24:29;52.90;;;25.48;;
18947;SDS011;9607;51.600;7.558;2024-03-07T03:26:56;48.95;;;24.23;;
18947;SDS011;9607;51.600;7.558;2024-03-07T03:29:23;47.70;;;23.83;;
18947;SDS011;9607;51.600;7.558;2024-03-07T03:31:54;55.80;;;25.08;;
18947;SDS011;9607;51.600;7.558;2024-03-07T03:34:21;53.95;;;24.77;;
18947;SDS011;9607;51.600;7.558;2024-03-07T03:36:49;51.47;;;23.80;;
18947;SDS011;9607;51.600;7.558;2024-03-07T03:39:16;62.83;;;27.55;;
18947;SDS011;9607;51.600;7.558;2024-03-07T03:41:45;82.15;;;36.05;;
18947;SDS011;9607;51.600;7.558;2024-03-07T03:44:12;76.47;;;32.60;;
18947;SDS011;9607;51.600;7.558;2024-03-07T03:46:39;68.07;;;30.05;;
18947;SDS011;9607;51.600;7.558;2024-03-07T03:49:08;62.72;;;27.77;;
18947;SDS011;9607;51.600;7.558;2024-03-07T03:51:35;62.25;;;28.75;;
18947;SDS011;9607;51.600;7.558;2024-03-07T03:54:02;59.92;;;28.02;;
18947;SDS011;9607;51.600;7.558;2024-03-07T03:56:30;56.33;;;25.77;;
18947;SDS011;9607;51.600;7.558;2024-03-07T03:58:57;50.30;;;23.98;;
18947;SDS011;9607;51.600;7.558;2024-03-07T04:01:24;49.55;;;24.35;;
18947;SDS011;9607;51.600;7.558;2024-03-07T04:03:51;53.08;;;24.17;;
18947;SDS011;9607;51.600;7.558;2024-03-07T04:06:19;53.13;;;24.45;;
18947;SDS011;9607;51.600;7.558;2024-03-07T04:08:46;49.15;;;23.98;;
18947;SDS011;9607;51.600;7.558;2024-03-07T04:11:13;53.90;;;23.42;;
18947;SDS011;9607;51.600;7.558;2024-03-07T04:13:40;51.17;;;24.27;;
18947;SDS011;9607;51.600;7.558;2024-03-07T04:16:07;69.70;;;28.48;;
18947;SDS011;9607;51.600;7.558;2024-03-07T04:18:34;50.08;;;24.42;;
18947;SDS011;9607;51.600;7.558;2024-03-07T04:21:01;59.15;;;27.40;;
18947;SDS011;9607;51.600;7.558;2024-03-07T04:23:30;68.40;;;30.63;;
18947;SDS011;9607;51.600;7.558;2024-03-07T04:25:57;64.60;;;28.50;;
18947;SDS011;9607;51.600;7.558;2024-03-07T04:28:24;81.15;;;35.00;;
18947;SDS011;9607;51.600;7.558;2024-03-07T04:30:50;97.70;;;37.75;;
18947;SDS011;9607;51.600;7.558;2024-03-07T04:33:18;96.15;;;39.72;;
18947;SDS011;9607;51.600;7.558;2024-03-07T04:35:45;82.05;;;34.20;;
18947;SDS011;9607;51.600;7.558;2024-03-07T04:38:12;82.43;;;34.25;;
18947;SDS011;9607;51.600;7.558;2024-03-07T04:40:41;77.13;;;33.53;;
18947;SDS011;9607;51.600;7.558;2024-03-07T04:43:08;90.88;;;37.13;;
18947;SDS011;9607;51.600;7.558;2024-03-07T04:45:36;91.03;;;35.22;;
18947;SDS011;9607;51.600;7.558;2024-03-07T04:48:03;82.05;;;34.50;;
18947;SDS011;9607;51.600;7.558;2024-03-07T04:50:31;77.75;;;34.28;;
18947;SDS011;9607;51.600;7.558;2024-03-07T04:52:57;94.35;;;38.78;;
18947;SDS011;9607;51.600;7.558;2024-03-07T04:55:24;83.40;;;35.72;;
18947;SDS011;9607;51.600;7.558;2024-03-07T04:57:52;103.57;;;41.50;;
18947;SDS011;9607;51.600;7.558;2024-03-07T05:00:19;103.72;;;43.35;;
18947;SDS011;9607;51.600;7.558;2024-03-07T05:02:47;100.80;;;40.83;;
18947;SDS011;9607;51.600;7.558;2024-03-07T05:05:15;102.07;;;40.15;;
18947;SDS011;9607;51.600;7.558;2024-03-07T05:07:47;106.03;;;42.17;;
18947;SDS011;9607;51.600;7.558;2024-03-07T05:10:14;101.22;;;42.90;;
18947;SDS011;9607;51.600;7.558;2024-03-07T05:12:41;108.47;;;41.13;;
18947;SDS011;9607;51.600;7.558;2024-03-07T05:15:09;86.00;;;36.55;;
18947;SDS011;9607;51.600;7.558;2024-03-07T05:17:36;78.35;;;34.75;;
18947;SDS011;9607;51.600;7.558;2024-03-07T05:20:04;79.07;;;33.55;;
18947;SDS011;9607;51.600;7.558;2024-03-07T05:22:35;72.93;;;32.83;;
18947;SDS011;9607;51.600;7.558;2024-03-07T05:25:04;73.82;;;32.55;;
18947;SDS011;9607;51.600;7.558;2024-03-07T05:27:31;64.55;;;28.73;;
18947;SDS011;9607;51.600;7.558;2024-03-07T05:29:58;65.30;;;28.27;;
18947;SDS011;9607;51.600;7.558;2024-03-07T05:32:27;56.47;;;27.15;;
18947;SDS011;9607;51.600;7.558;2024-03-07T05:34:54;59.72;;;28.13;;
18947;SDS011;9607;51.600;7.558;2024-03-07T05:37:21;56.13;;;27.25;;
18947;SDS011;9607;51.600;7.558;2024-03-07T05:39:48;67.72;;;31.73;;
18947;SDS011;9607;51.600;7.558;2024-03-07T05:42:15;75.20;;;31.35;;
18947;SDS011;9607;51.600;7.558;2024-03-07T05:44:43;78.00;;;34.10;;
18947;SDS011;9607;51.600;7.558;2024-03-07T05:47:10;86.97;;;37.88;;
18947;SDS011;9607;51.600;7.558;2024-03-07T05:49:39;88.65;;;38.53;;
18947;SDS011;9607;51.600;7.558;2024-03-07T05:52:06;91.18;;;37.55;;
18947;SDS011;9607;51.600;7.558;2024-03-07T05:54:34;98.55;;;40.30;;
18947;SDS011;9607;51.600;7.558;2024-03-07T05:57:01;86.55;;;37.17;;
18947;SDS011;9607;51.600;7.558;2024-03-07T05:59:28;96.95;;;38.75;;
18947;SDS011;9607;51.600;7.558;2024-03-07T06:01:56;92.40;;;38.63;;
18947;SDS011;9607;51.600;7.558;2024-03-07T06:04:23;96.95;;;38.60;;
18947;SDS011;9607;51.600;7.558;2024-03-07T06:06:52;94.55;;;37.20;;
18947;SDS011;9607;51.600;7.558;2024-03-07T06:09:19;100.28;;;40.15;;
18947;SDS011;9607;51.600;7.558;2024-03-07T06:11:46;90.65;;;38.13;;
18947;SDS011;9607;51.600;7.558;2024-03-07T06:14:14;79.45;;;35.50;;
18947;SDS011;9607;51.600;7.558;2024-03-07T06:16:41;89.25;;;37.42;;
18947;SDS011;9607;51.600;7.558;2024-03-07T06:19:09;85.53;;;37.03;;
18947;SDS011;9607;51.600;7.558;2024-03-07T06:21:36;82.78;;;34.80;;
18947;SDS011;9607;51.600;7.558;2024-03-07T06:24:07;71.07;;;30.95;;
18947;SDS011;9607;51.600;7.558;2024-03-07T06:26:36;80.05;;;33.85;;
18947;SDS011;9607;51.600;7.558;2024-03-07T06:29:12;79.28;;;35.50;;
18947;SDS011;9607;51.600;7.558;2024-03-07T06:31:41;101.80;;;42.25;;
18947;SDS011;9607;51.600;7.558;2024-03-07T06:34:08;91.20;;;40.55;;
18947;SDS011;9607;51.600;7.558;2024-03-07T06:36:35;98.40;;;39.45;;
18947;SDS011;9607;51.600;7.558;2024-03-07T06:39:03;93.50;;;36.53;;
18947;SDS011;9607;51.600;7.558;2024-03-07T06:41:32;95.55;;;39.42;;
18947;SDS011;9607;51.600;7.558;2024-03-07T06:43:59;103.95;;;42.78;;
18947;SDS011;9607;51.600;7.558;2024-03-07T06:46:26;91.57;;;38.30;;
18947;SDS011;9607;51.600;7.558;2024-03-07T06:48:56;94.78;;;39.55;;
18947;SDS011;9607;51.600;7.558;2024-03-07T06:51:23;87.05;;;38.20;;
18947;SDS011;9607;51.600;7.558;2024-03-07T06:53:50;86.38;;;37.88;;
18947;SDS011;9607;51.600;7.558;2024-03-07T06:56:17;87.20;;;38.60;;
18947;SDS011;9607;51.600;7.558;2024-03-07T06:58:45;98.70;;;39.20;;
18947;SDS011;9607;51.600;7.558;2024-03-07T07:01:13;92.65;;;37.92;;
18947;SDS011;9607;51.600;7.558;2024-03-07T07:03:41;91.60;;;37.35;;
18947;SDS011;9607;51.600;7.558;2024-03-07T07:06:10;78.22;;;34.67;;
18947;SDS011;9607;51.600;7.558;2024-03-07T07:08:36;80.88;;;35.05;;
18947;SDS011;9607;51.600;7.558;2024-03-07T07:11:03;75.93;;;32.95;;
18947;SDS011;9607;51.600;7.558;2024-03-07T07:13:30;69.20;;;30.95;;
18947;SDS011;9607;51.600;7.558;2024-03-07T07:15:59;82.50;;;33.63;;
18947;SDS011;9607;51.600;7.558;2024-03-07T07:18:26;92.45;;;38.83;;
18947;SDS011;9607;51.600;7.558;2024-03-07T07:20:53;86.60;;;37.30;;
18947;SDS011;9607;51.600;7.558;2024-03-07T07:23:21;73.35;;;34.58;;
18947;SDS011;9607;51.600;7.558;2024-03-07T07:25:48;81.40;;;36.40;;
18947;SDS011;9607;51.600;7.558;2024-03-07T07:28:15;73.57;;;34.58;;
18947;SDS011;9607;51.600;7.558;2024-03-07T07:30:42;73.70;;;35.33;;
18947;SDS011;9607;51.600;7.558;2024-03-07T07:33:10;66.10;;;33.70;;
18947;SDS011;9607;51.600;7.558;2024-03-07T07:35:36;70.57;;;33.22;;
18947;SDS011;9607;51.600;7.558;2024-03-07T07:38:04;68.63;;;33.05;;
18947;SDS011;9607;51.600;7.558;2024-03-07T07:40:32;66.40;;;32.95;;
18947;SDS011;9607;51.600;7.558;2024-03-07T07:43:00;63.60;;;32.42;;
18947;SDS011;9607;51.600;7.558;2024-03-07T07:45:27;60.90;;;31.27;;
18947;SDS011;9607;51.600;7.558;2024-03-07T07:47:54;56.25;;;30.50;;
18947;SDS011;9607;51.600;7.558;2024-03-07T07:50:23;56.90;;;31.15;;
18947;SDS011;9607;51.600;7.558;2024-03-07T07:52:51;57.05;;;31.00;;
18947;SDS011;9607;51.600;7.558;2024-03-07T07:55:19;56.38;;;32.13;;
18947;SDS011;9607;51.600;7.558;2024-03-07T07:57:48;53.65;;;30.65;;
18947;SDS011;9607;51.600;7.558;2024-03-07T08:00:18;57.80;;;32.10;;
18947;SDS011;9607;51.600;7.558;2024-03-07T08:02:50;53.42;;;33.90;;
18947;SDS011;9607;51.600;7.558;2024-03-07T08:05:18;54.88;;;31.92;;
18947;SDS011;9607;51.600;7.558;2024-03-07T08:07:49;49.47;;;29.60;;
18947;SDS011;9607;51.600;7.558;2024-03-07T08:10:17;46.05;;;29.55;;
18947;SDS011;9607;51.600;7.558;2024-03-07T08:12:44;44.17;;;27.25;;
18947;SDS011;9607;51.600;7.558;2024-03-07T08:15:12;45.88;;;27.48;;
18947;SDS011;9607;51.600;7.558;2024-03-07T08:17:41;41.35;;;26.30;;
18947;SDS011;9607;51.600;7.558;2024-03-07T08:20:10;42.78;;;28.55;;
18947;SDS011;9607;51.600;7.558;2024-03-07T08:22:39;40.03;;;26.88;;
18947;SDS011;9607;51.600;7.558;2024-03-07T08:25:08;41.20;;;27.00;;
18947;SDS011;9607;51.600;7.558;2024-03-07T08:27:36;40.85;;;26.38;;
18947;SDS011;9607;51.600;7.558;2024-03-07T08:30:04;37.05;;;25.95;;
18947;SDS011;9607;51.600;7.558;2024-03-07T08:32:32;36.88;;;24.85;;
18947;SDS011;9607;51.600;7.558;2024-03-07T08:35:01;38.97;;;24.95;;
18947;SDS011;9607;51.600;7.558;2024-03-07T08:37:34;33.20;;;23.70;;
18947;SDS011;9607;51.600;7.558;2024-03-07T08:40:02;36.88;;;24.50;;
18947;SDS011;9607;51.600;7.558;2024-03-07T08:42:33;34.13;;;23.90;;
18947;SDS011;9607;51.600;7.558;2024-03-07T08:45:00;33.45;;;22.90;;
18947;SDS011;9607;51.600;7.558;2024-03-07T08:47:29;32.45;;;22.95;;
18947;SDS011;9607;51.600;7.558;2024-03-07T08:49:56;29.92;;;21.85;;
18947;SDS011;9607;51.600;7.558;2024-03-07T08:52:23;32.20;;;22.33;;
18947;SDS011;9607;51.600;7.558;2024-03-07T08:54:50;30.77;;;22.33;;
18947;SDS011;9607;51.600;7.558;2024-03-07T08:57:17;31.83;;;23.35;;
18947;SDS011;9607;51.600;7.558;2024-03-07T08:59:46;28.05;;;21.38;;
18947;SDS011;9607;51.600;7.558;2024-03-07T09:02:13;30.35;;;22.25;;
18947;SDS011;9607;51.600;7.558;2024-03-07T09:04:40;28.95;;;21.88;;
18947;SDS011;9607;51.600;7.558;2024-03-07T09:07:07;27.08;;;20.83;;
18947;SDS011;9607;51.600;7.558;2024-03-07T09:09:34;27.02;;;20.05;;
18947;SDS011;9607;51.600;7.558;2024-03-07T09:12:01;29.17;;;20.70;;
18947;SDS011;9607;51.600;7.558;2024-03-07T09:14:28;30.13;;;21.75;;
18947;SDS011;9607;51.600;7.558;2024-03-07T09:16:56;24.52;;;18.65;;
18947;SDS011;9607;51.600;7.558;2024-03-07T09:19:23;23.20;;;19.02;;
18947;SDS011;9607;51.600;7.558;2024-03-07T09:21:50;26.95;;;20.10;;
18947;SDS011;9607;51.600;7.558;2024-03-07T09:24:18;25.80;;;19.45;;
18947;SDS011;9607;51.600;7.558;2024-03-07T09:26:47;25.77;;;19.42;;
18947;SDS011;9607;51.600;7.558;2024-03-07T09:29:14;26.50;;;19.52;;
18947;SDS011;9607;51.600;7.558;2024-03-07T09:31:42;24.70;;;20.15;;
18947;SDS011;9607;51.600;7.558;2024-03-07T09:34:11;23.65;;;19.67;;
18947;SDS011;9607;51.600;7.558;2024-03-07T09:36:39;25.80;;;19.85;;
18947;SDS011;9607;51.600;7.558;2024-03-07T09:39:07;23.77;;;18.90;;
18947;SDS011;9607;51.600;7.558;2024-03-07T09:41:34;24.60;;;19.88;;
18947;SDS011;9607;51.600;7.558;2024-03-07T09:44:02;22.63;;;18.42;;
18947;SDS011;9607;51.600;7.558;2024-03-07T09:46:31;22.25;;;18.23;;
18947;SDS011;9607;51.600;7.558;2024-03-07T09:48:58;22.45;;;18.40;;
18947;SDS011;9607;51.600;7.558;2024-03-07T09:51:27;21.70;;;17.30;;
18947;SDS011;9607;51.600;7.558;2024-03-07T09:53:56;18.38;;;15.88;;
18947;SDS011;9607;51.600;7.558;2024-03-07T09:56:25;23.65;;;18.90;;
18947;SDS011;9607;51.600;7.558;2024-03-07T09:58:56;23.13;;;18.15;;
18947;SDS011;9607;51.600;7.558;2024-03-07T10:01:25;23.27;;;18.25;;
18947;SDS011;9607;51.600;7.558;2024-03-07T10:03:57;19.98;;;17.15;;
18947;SDS011;9607;51.600;7.558;2024-03-07T10:06:27;19.65;;;16.55;;
18947;SDS011;9607;51.600;7.558;2024-03-07T10:08:55;20.50;;;16.77;;
18947;SDS011;9607;51.600;7.558;2024-03-07T10:11:23;21.65;;;16.10;;
18947;SDS011;9607;51.600;7.558;2024-03-07T10:13:50;19.80;;;17.02;;
18947;SDS011;9607;51.600;7.558;2024-03-07T10:16:18;21.30;;;16.88;;
18947;SDS011;9607;51.600;7.558;2024-03-07T10:18:45;19.77;;;16.48;;
18947;SDS011;9607;51.600;7.558;2024-03-07T10:21:13;20.13;;;16.20;;
18947;SDS011;9607;51.600;7.558;2024-03-07T10:23:46;20.40;;;16.55;;
18947;SDS011;9607;51.600;7.558;2024-03-07T10:26:13;20.15;;;16.02;;
18947;SDS011;9607;51.600;7.558;2024-03-07T10:28:41;19.05;;;15.25;;
18947;SDS011;9607;51.600;7.558;2024-03-07T10:31:09;17.38;;;13.55;;
18947;SDS011;9607;51.600;7.558;2024-03-07T10:33:40;18.00;;;15.00;;
18947;SDS011;9607;51.600;7.558;2024-03-07T10:36:09;16.90;;;13.88;;
18947;SDS011;9607;51.600;7.558;2024-03-07T10:38:38;17.73;;;15.07;;
18947;SDS011;9607;51.600;7.558;2024-03-07T10:41:07;15.95;;;14.23;;
18947;SDS011;9607;51.600;7.558;2024-03-07T10:43:36;16.58;;;13.57;;
18947;SDS011;9607;51.600;7.558;2024-03-07T10:46:07;18.55;;;13.93;;
18947;SDS011;9607;51.600;7.558;2024-03-07T10:48:37;18.75;;;14.70;;
18947;SDS011;9607;51.600;7.558;2024-03-07T10:51:06;17.33;;;14.23;;
18947;SDS011;9607;51.600;7.558;2024-03-07T10:53:40;15.32;;;13.38;;
18947;SDS011;9607;51.600;7.558;2024-03-07T10:56:20;16.35;;;13.25;;
18947;SDS011;9607;51.600;7.558;2024-03-07T10:58:57;16.00;;;13.02;;
18947;SDS011;9607;51.600;7.558;2024-03-07T11:01:29;13.32;;;11.93;;
18947;SDS011;9607;51.600;7.558;2024-03-07T11:03:59;15.30;;;13.45;;
18947;SDS011;9607;51.600;7.558;2024-03-07T11:06:29;14.75;;;12.57;;
18947;SDS011;9607;51.600;7.558;2024-03-07T11:08:59;16.05;;;13.55;;
18947;SDS011;9607;51.600;7.558;2024-03-07T11:11:36;16.70;;;13.70;;
18947;SDS011;9607;51.600;7.558;2024-03-07T11:14:05;15.65;;;13.07;;
18947;SDS011;9607;51.600;7.558;2024-03-07T11:16:35;18.08;;;14.30;;
18947;SDS011;9607;51.600;7.558;2024-03-07T11:19:24;15.98;;;12.98;;
18947;SDS011;9607;51.600;7.558;2024-03-07T11:21:53;15.82;;;13.18;;
18947;SDS011;9607;51.600;7.558;2024-03-07T11:24:27;17.55;;;13.75;;
18947;SDS011;9607;51.600;7.558;2024-03-07T11:26:59;15.98;;;13.18;;
18947;SDS011;9607;51.600;7.558;2024-03-07T11:29:38;16.98;;;12.90;;
18947;SDS011;9607;51.600;7.558;2024-03-07T11:32:10;17.92;;;13.70;;
18947;SDS011;9607;51.600;7.558;2024-03-07T11:34:38;18.10;;;13.23;;
18947;SDS011;9607;51.600;7.558;2024-03-07T11:37:07;15.75;;;13.30;;
18947;SDS011;9607;51.600;7.558;2024-03-07T11:39:42;13.80;;;11.45;;
18947;SDS011;9607;51.600;7.558;2024-03-07T11:42:20;14.55;;;12.40;;
18947;SDS011;9607;51.600;7.558;2024-03-07T11:44:51;14.70;;;12.88;;
18947;SDS011;9607;51.600;7.558;2024-03-07T11:47:21;14.73;;;12.35;;
18947;SDS011;9607;51.600;7.558;2024-03-07T11:49:49;14.25;;;11.60;;
18947;SDS011;9607;51.600;7.558;2024-03-07T11:52:17;15.43;;;11.90;;
18947;SDS011;9607;51.600;7.558;2024-03-07T11:54:44;12.45;;;10.57;;
18947;SDS011;9607;51.600;7.558;2024-03-07T11:57:17;18.17;;;12.95;;
18947;SDS011;9607;51.600;7.558;2024-03-07T11:59:52;14.20;;;12.38;;
18947;SDS011;9607;51.600;7.558;2024-03-07T12:02:19;14.27;;;11.63;;
18947;SDS011;9607;51.600;7.558;2024-03-07T12:04:47;12.93;;;11.02;;
18947;SDS011;9607;51.600;7.558;2024-03-07T12:07:14;12.68;;;11.00;;
18947;SDS011;9607;51.600;7.558;2024-03-07T12:09:43;13.65;;;11.00;;
18947;SDS011;9607;51.600;7.558;2024-03-07T12:12:15;12.15;;;9.98;;
18947;SDS011;9607;51.600;7.558;2024-03-07T12:14:43;11.70;;;10.45;;
18947;SDS011;9607;51.600;7.558;2024-03-07T12:17:11;11.80;;;9.63;;
18947;SDS011;9607;51.600;7.558;2024-03-07T12:19:39;12.73;;;10.80;;
18947;SDS011;9607;51.600;7.558;2024-03-07T12:22:08;13.30;;;10.55;;
18947;SDS011;9607;51.600;7.558;2024-03-07T12:24:40;14.00;;;11.45;;
18947;SDS011;9607;51.600;7.558;2024-03-07T12:27:08;12.55;;;10.20;;
18947;SDS011;9607;51.600;7.558;2024-03-07T12:29:35;11.73;;;9.75;;
18947;SDS011;9607;51.600;7.558;2024-03-07T12:32:04;10.80;;;8.95;;
18947;SDS011;9607;51.600;7.558;2024-03-07T12:34:34;11.52;;;9.63;;
18947;SDS011;9607;51.600;7.558;2024-03-07T12:37:06;11.80;;;10.20;;
18947;SDS011;9607;51.600;7.558;2024-03-07T12:39:33;11.02;;;9.38;;
18947;SDS011;9607;51.600;7.558;2024-03-07T12:42:01;11.30;;;9.43;;
18947;SDS011;9607;51.600;7.558;2024-03-07T12:44:38;11.50;;;10.02;;
18947;SDS011;9607;51.600;7.558;2024-03-07T12:47:08;11.57;;;9.13;;
18947;SDS011;9607;51.600;7.558;2024-03-07T12:49:37;11.07;;;9.35;;
18947;SDS011;9607;51.600;7.558;2024-03-07T12:52:04;11.15;;;9.18;;
18947;SDS011;9607;51.600;7.558;2024-03-07T12:54:32;10.43;;;8.63;;
18947;SDS011;9607;51.600;7.558;2024-03-07T12:57:00;8.75;;;7.68;;
18947;SDS011;9607;51.600;7.558;2024-03-07T12:59:30;11.35;;;8.95;;
18947;SDS011;9607;51.600;7.558;2024-03-07T13:01:57;9.68;;;7.88;;
18947;SDS011;9607;51.600;7.558;2024-03-07T13:04:24;11.60;;;8.45;;
18947;SDS011;9607;51.600;7.558;2024-03-07T13:06:53;10.73;;;6.95;;
18947;SDS011;9607;51.600;7.558;2024-03-07T13:09:24;8.48;;;6.88;;
18947;SDS011;9607;51.600;7.558;2024-03-07T13:11:53;8.32;;;7.10;;
18947;SDS011;9607;51.600;7.558;2024-03-07T13:14:20;8.00;;;6.80;;
18947;SDS011;9607;51.600;7.558;2024-03-07T13:16:47;10.05;;;8.65;;
18947;SDS011;9607;51.600;7.558;2024-03-07T13:19:15;11.23;;;7.82;;
18947;SDS011;9607;51.600;7.558;2024-03-07T13:21:45;9.07;;;6.93;;
18947;SDS011;9607;51.600;7.558;2024-03-07T13:24:14;9.75;;;7.93;;
18947;SDS011;9607;51.600;7.558;2024-03-07T13:26:42;9.00;;;7.53;;
18947;SDS011;9607;51.600;7.558;2024-03-07T13:29:09;9.57;;;8.32;;
18947;SDS011;9607;51.600;7.558;2024-03-07T13:31:37;8.27;;;7.20;;
18947;SDS011;9607;51.600;7.558;2024-03-07T13:34:05;9.88;;;8.02;;
18947;SDS011;9607;51.600;7.558;2024-03-07T13:36:38;8.70;;;7.20;;
18947;SDS011;9607;51.600;7.558;2024-03-07T13:39:05;10.82;;;8.63;;
18947;SDS011;9607;51.600;7.558;2024-03-07T13:41:37;9.48;;;8.27;;
18947;SDS011;9607;51.600;7.558;2024-03-07T13:44:04;9.85;;;7.78;;
18947;SDS011;9607;51.600;7.558;2024-03-07T13:46:31;12.13;;;9.02;;
18947;SDS011;9607;51.600;7.558;2024-03-07T13:48:58;11.35;;;8.82;;
18947;SDS011;9607;51.600;7.558;2024-03-07T13:51:32;11.55;;;9.73;;
18947;SDS011;9607;51.600;7.558;2024-03-07T13:54:01;10.68;;;8.60;;
18947;SDS011;9607;51.600;7.558;2024-03-07T13:56:54;12.05;;;7.97;;
18947;SDS011;9607;51.600;7.558;2024-03-07T13:59:40;9.90;;;8.15;;
18947;SDS011;9607;51.600;7.558;2024-03-07T14:02:33;11.45;;;8.35;;
18947;SDS011;9607;51.600;7.558;2024-03-07T14:08:35;10.90;;;8.13;;
18947;SDS011;9607;51.600;7.558;2024-03-07T14:11:41;14.20;;;9.85;;
18947;SDS011;9607;51.600;7.558;2024-03-07T14:14:38;11.30;;;9.15;;
18947;SDS011;9607;51.600;7.558;2024-03-07T14:17:30;13.25;;;10.30;;
18947;SDS011;9607;51.600;7.558;2024-03-07T14:20:31;12.10;;;9.57;;
18947;SDS011;9607;51.600;7.558;2024-03-07T14:23:28;12.95;;;9.65;;
18947;SDS011;9607;51.600;7.558;2024-03-07T14:26:14;15.45;;;10.93;;
18947;SDS011;9607;51.600;7.558;2024-03-07T14:29:16;15.13;;;10.07;;
18947;SDS011;9607;51.600;7.558;2024-03-07T14:31:48;16.23;;;11.23;;
18947;SDS011;9607;51.600;7.558;2024-03-07T14:34:18;14.43;;;10.80;;
18947;SDS011;9607;51.600;7.558;2024-03-07T14:36:55;13.18;;;10.15;;
18947;SDS011;9607;51.600;7.558;2024-03-07T14:39:30;14.88;;;10.85;;
18947;SDS011;9607;51.600;7.558;2024-03-07T14:42:01;14.70;;;10.88;;
18947;SDS011;9607;51.600;7.558;2024-03-07T14:44:36;14.15;;;9.82;;
18947;SDS011;9607;51.600;7.558;2024-03-07T14:47:05;12.77;;;9.80;;
18947;SDS011;9607;51.600;7.558;2024-03-07T14:49:36;13.27;;;10.57;;